createdAt,value
2022-11-19T00:02:26.910Z,52478.44
2022-11-19T00:04:58.799Z,52468.79
2022-11-19T00:07:28.627Z,52467.58
2022-11-19T00:10:00.263Z,52474.81
2022-11-19T00:12:49.585Z,52468.79
2022-11-19T00:15:20.948Z,52484.46
2022-11-19T00:17:52.444Z,52471.20
2022-11-19T00:20:23.812Z,52478.03
2022-11-19T00:22:55.709Z,52460.75
2022-11-19T00:25:27.722Z,52479.64
2022-11-19T00:28:00.354Z,52493.30
2022-11-19T00:30:47.524Z,52463.56
2022-11-19T00:33:19.859Z,52466.77
2022-11-19T00:35:51.245Z,52464.37
2022-11-19T00:38:22.617Z,52462.76
2022-11-19T00:40:54.246Z,52460.75
2022-11-19T00:43:43.631Z,52465.18
2022-11-19T00:46:15.419Z,52457.13
2022-11-19T00:48:46.959Z,52471.20
2022-11-19T00:51:18.758Z,52474.01
2022-11-19T00:53:48.552Z,52461.55
2022-11-19T00:56:22.779Z,52465.57
2022-11-19T00:58:54.114Z,52488.88
2022-11-19T01:01:26.181Z,52476.02
2022-11-19T01:03:57.599Z,52488.48
2022-11-19T01:06:29.119Z,52449.09
2022-11-19T01:09:00.474Z,52466.38
2022-11-19T01:11:32.897Z,52459.95
2022-11-19T01:14:04.611Z,52474.41
2022-11-19T01:16:35.108Z,52455.93
2022-11-19T01:19:06.789Z,52474.01
2022-11-19T01:21:36.719Z,52476.82
2022-11-19T01:24:08.917Z,52454.73
2022-11-19T01:26:44.431Z,52475.22
2022-11-19T01:29:17.672Z,52476.82
2022-11-19T01:31:49.326Z,52472.80
2022-11-19T01:34:20.767Z,52466.38
2022-11-19T01:36:52.104Z,52462.36
2022-11-19T01:39:23.675Z,52466.38
2022-11-19T01:41:55.048Z,52473.21
2022-11-19T01:45:00.653Z,52468.79
2022-11-19T01:47:32.078Z,52462.76
2022-11-19T01:50:03.620Z,52465.98
2022-11-19T01:52:35.086Z,52459.54
2022-11-19T01:55:07.478Z,52464.37
2022-11-19T01:57:39.408Z,52459.95
2022-11-19T02:00:13.114Z,52458.34
2022-11-19T02:02:44.464Z,52468.79
2022-11-19T02:05:15.813Z,52446.69
2022-11-19T02:07:48.861Z,52472.00
2022-11-19T02:10:20.382Z,52472.01
2022-11-19T02:12:55.310Z,52464.77
2022-11-19T02:15:32.163Z,52468.39
2022-11-19T02:18:14.967Z,52470.80
2022-11-19T02:20:49.088Z,52440.26
2022-11-19T02:23:57.249Z,52473.61
2022-11-19T02:27:05.390Z,52460.35
2022-11-19T02:30:06.531Z,52441.05
2022-11-19T02:32:40.172Z,52461.96
2022-11-19T02:35:17.714Z,52453.92
2022-11-19T02:37:51.291Z,52467.18
2022-11-19T02:40:24.626Z,52455.93
2022-11-19T02:43:00.891Z,52466.77
2022-11-19T02:45:34.203Z,52462.76
2022-11-19T02:48:08.284Z,52476.43
2022-11-19T02:50:41.445Z,52444.27
2022-11-19T02:53:12.902Z,52457.13
2022-11-19T02:56:07.019Z,52472.40
2022-11-19T02:58:56.590Z,52464.37
2022-11-19T03:01:45.822Z,52470.80
2022-11-19T03:04:37.164Z,52445.48
2022-11-19T03:07:11.265Z,52460.35
2022-11-19T03:09:43.671Z,52455.52
2022-11-19T03:12:19.093Z,52465.17
2022-11-19T03:15:11.801Z,52458.34
2022-11-19T03:17:54.426Z,52448.29
2022-11-19T03:20:28.264Z,52462.36
2022-11-19T03:23:00.827Z,52442.66
2022-11-19T03:25:35.438Z,52455.93
2022-11-19T03:28:09.676Z,52437.45
2022-11-19T03:30:41.158Z,52456.73
2022-11-19T03:33:14.746Z,52461.55
2022-11-19T03:35:47.750Z,52436.64
2022-11-19T03:38:20.396Z,52446.69
2022-11-19T03:40:51.795Z,52450.30
2022-11-19T03:43:23.212Z,52462.76
2022-11-19T03:45:54.718Z,52449.50
2022-11-19T03:48:26.272Z,52458.34
2022-11-19T03:50:56.467Z,52447.49
2022-11-19T03:53:27.757Z,52418.55
2022-11-19T03:56:00.920Z,52431.01
2022-11-19T03:58:35.309Z,52441.86
2022-11-19T04:01:06.769Z,52424.98
2022-11-19T04:03:38.391Z,52431.82
2022-11-19T04:06:11.168Z,52443.07
2022-11-19T04:08:42.470Z,52443.48
2022-11-19T04:13:47.927Z,52436.64
2022-11-19T04:16:19.304Z,52430.61
2022-11-19T04:18:50.586Z,52422.98
2022-11-19T04:21:22.045Z,52423.78
2022-11-19T04:23:53.374Z,52445.07
2022-11-19T04:26:24.759Z,52429.80
2022-11-19T04:28:56.348Z,52433.82
2022-11-19T04:31:27.986Z,52437.04
2022-11-19T04:33:59.329Z,52410.91
2022-11-19T04:36:30.714Z,52426.19
2022-11-19T04:39:02.018Z,52422.57
2022-11-19T04:41:33.403Z,52420.96
2022-11-19T04:44:04.989Z,52443.88
2022-11-19T04:46:36.392Z,52407.70
2022-11-19T04:49:07.909Z,52417.34
2022-11-19T04:51:37.978Z,52415.34
2022-11-19T04:54:10.306Z,52415.74
2022-11-19T04:56:42.044Z,52399.66
2022-11-19T04:59:13.561Z,52413.32
2022-11-19T05:01:45.145Z,52408.51
2022-11-19T05:04:16.741Z,52410.52
2022-11-19T05:06:48.744Z,52400.07
2022-11-19T05:09:20.341Z,52414.54
2022-11-19T05:11:51.969Z,52405.29
2022-11-19T05:14:27.369Z,52417.75
2022-11-19T05:17:01.728Z,52400.87
2022-11-19T05:19:33.248Z,52413.73
2022-11-19T05:22:04.598Z,52403.28
2022-11-19T05:24:36.148Z,52408.11
2022-11-19T05:27:07.703Z,52390.42
2022-11-19T05:29:39.266Z,52418.96
2022-11-19T05:32:10.656Z,52386.00
2022-11-19T05:34:42.049Z,52394.44
2022-11-19T05:37:13.495Z,52393.63
2022-11-19T05:39:45.177Z,52395.24
2022-11-19T05:42:16.676Z,52378.77
2022-11-19T05:44:48.165Z,52379.17
2022-11-19T05:47:19.542Z,52390.42
2022-11-19T05:49:50.914Z,52382.78
2022-11-19T05:52:22.262Z,52391.23
2022-11-19T05:54:54.152Z,52400.07
2022-11-19T05:57:25.908Z,52394.84
2022-11-19T05:59:57.281Z,52376.76
2022-11-19T06:02:27.492Z,52381.18
2022-11-19T06:04:58.937Z,52386.80
2022-11-19T06:07:30.663Z,52387.21
2022-11-19T06:10:02.449Z,52391.63
2022-11-19T06:12:34.641Z,52376.76
2022-11-19T06:15:07.125Z,52389.62
2022-11-19T06:17:38.981Z,52381.18
2022-11-19T06:20:11.878Z,52369.93
2022-11-19T06:22:43.648Z,52389.22
2022-11-19T06:25:15.283Z,52370.33
2022-11-19T06:27:45.152Z,52377.96
2022-11-19T06:30:17.355Z,52369.12
2022-11-19T06:32:48.921Z,52372.74
2022-11-19T06:35:20.540Z,52383.19
2022-11-19T06:37:50.463Z,52362.70
2022-11-19T06:40:21.886Z,52373.95
2022-11-19T06:42:53.538Z,52376.76
2022-11-19T06:45:25.161Z,52367.11
2022-11-19T06:47:55.152Z,52380.77
2022-11-19T06:50:26.551Z,52376.76
2022-11-19T06:52:56.994Z,52379.97
2022-11-19T06:55:29.080Z,52370.73
2022-11-19T06:58:04.314Z,52379.17
2022-11-19T07:00:35.771Z,52364.70
2022-11-19T07:03:07.717Z,52352.64
2022-11-19T07:05:39.369Z,52349.43
2022-11-19T07:08:10.868Z,52351.04
2022-11-19T07:10:42.393Z,52340.19
2022-11-19T07:13:13.925Z,52363.09
2022-11-19T07:15:45.645Z,52342.20
2022-11-19T07:18:15.430Z,52345.81
2022-11-19T07:20:48.120Z,52351.44
2022-11-19T07:23:20.600Z,52334.96
2022-11-19T07:25:53.156Z,52340.99
2022-11-19T07:28:24.888Z,52347.02
2022-11-19T07:30:56.465Z,52332.15
2022-11-19T07:33:28.214Z,52352.64
2022-11-19T07:35:58.118Z,52347.42
2022-11-19T07:38:34.099Z,52333.35
2022-11-19T07:41:28.977Z,52348.63
2022-11-19T07:44:00.337Z,52340.99
2022-11-19T07:46:31.976Z,52335.37
2022-11-19T07:49:03.465Z,52349.84
2022-11-19T07:51:34.758Z,52343.40
2022-11-19T07:54:06.322Z,52333.36
2022-11-19T07:56:39.027Z,52342.60
2022-11-19T07:59:15.941Z,52333.76
2022-11-19T08:01:48.480Z,52341.79
2022-11-19T08:04:21.195Z,52332.96
2022-11-19T08:06:55.384Z,52324.51
2022-11-19T08:09:28.633Z,52300.80
2022-11-19T08:12:02.614Z,52326.93
2022-11-19T08:14:37.819Z,52336.97
2022-11-19T08:17:29.287Z,52320.09
2022-11-19T08:20:02.640Z,52324.51
2022-11-19T08:22:37.634Z,52318.89
2022-11-19T08:25:11.504Z,52309.24
2022-11-19T08:27:44.857Z,52323.71
2022-11-19T08:30:18.675Z,52316.48
2022-11-19T08:32:51.209Z,52297.59
2022-11-19T08:35:24.093Z,52301.61
2022-11-19T08:37:58.575Z,52305.23
2022-11-19T08:40:31.184Z,52291.16
2022-11-19T08:43:03.881Z,52293.57
2022-11-19T08:45:37.146Z,52275.89
2022-11-19T08:48:12.182Z,52289.15
2022-11-19T08:50:48.759Z,52281.51
2022-11-19T08:53:21.053Z,52295.18
2022-11-19T08:55:55.351Z,52276.29
2022-11-19T08:58:27.594Z,52283.93
2022-11-19T09:01:03.555Z,52272.27
2022-11-19T09:03:36.707Z,52278.30
2022-11-19T09:06:09.709Z,52275.09
2022-11-19T09:08:41.859Z,52256.20
2022-11-19T09:11:18.706Z,52248.96
2022-11-19T09:13:51.149Z,52257.80
2022-11-19T09:16:24.461Z,52254.99
2022-11-19T09:19:01.885Z,52257.40
2022-11-19T09:21:37.927Z,52263.02
2022-11-19T09:24:18.395Z,52259.81
2022-11-19T09:26:53.217Z,52265.84
2022-11-19T09:29:26.643Z,52261.82
2022-11-19T09:32:03.486Z,52237.71
2022-11-19T09:34:46.004Z,52239.32
2022-11-19T09:37:22.026Z,52250.57
2022-11-19T09:39:54.908Z,52246.55
2022-11-19T09:42:29.705Z,52239.72
2022-11-19T09:45:17.769Z,52248.96
2022-11-19T09:48:06.932Z,52248.56
2022-11-19T09:50:53.477Z,52241.33
2022-11-19T09:53:30.863Z,52247.76
2022-11-19T09:56:07.516Z,52249.77
2022-11-19T09:58:41.696Z,52215.61
2022-11-19T10:01:17.045Z,52250.17
2022-11-19T10:03:49.808Z,52232.48
2022-11-19T10:06:29.243Z,52222.44
2022-11-19T10:09:17.803Z,52220.83
2022-11-19T10:11:57.344Z,52197.93
2022-11-19T10:14:55.895Z,52208.37
2022-11-19T10:17:33.116Z,52200.74
2022-11-19T10:20:13.870Z,52206.36
2022-11-19T10:22:47.372Z,52212.39
2022-11-19T10:25:21.164Z,52200.34
2022-11-19T10:27:55.605Z,52209.18
2022-11-19T10:30:28.265Z,52211.59
2022-11-19T10:33:01.529Z,52215.61
2022-11-19T10:35:34.068Z,52211.59
2022-11-19T10:38:06.810Z,52201.14
2022-11-19T10:40:40.766Z,52195.52
2022-11-19T10:43:22.068Z,52204.36
2022-11-19T10:45:54.935Z,52186.27
2022-11-19T10:48:27.087Z,52186.27
2022-11-19T10:50:58.766Z,52185.47
2022-11-19T10:53:31.782Z,52188.28
2022-11-19T10:56:05.111Z,52183.46
2022-11-19T10:58:38.729Z,52180.25
2022-11-19T11:01:17.232Z,52190.29
2022-11-19T11:03:51.232Z,52199.13
2022-11-19T11:06:22.707Z,52175.02
2022-11-19T11:08:55.078Z,52186.27
2022-11-19T11:11:49.214Z,52198.33
2022-11-19T11:14:38.783Z,52203.15
2022-11-19T11:17:20.039Z,52197.93
2022-11-19T11:20:03.490Z,52194.31
2022-11-19T11:22:35.306Z,52187.48
2022-11-19T11:25:07.529Z,52167.38
2022-11-19T11:27:39.111Z,52160.15
2022-11-19T11:30:18.484Z,52180.65
2022-11-19T11:32:50.094Z,52195.52
2022-11-19T11:35:35.869Z,52169.80
2022-11-19T11:38:07.389Z,52166.18
2022-11-19T11:40:38.813Z,52159.75
2022-11-19T11:43:16.082Z,52158.95
2022-11-19T11:45:48.001Z,52162.96
2022-11-19T11:48:22.594Z,52161.36
2022-11-19T11:50:53.944Z,52172.61
2022-11-19T11:53:33.230Z,52186.68
2022-11-19T11:56:05.090Z,52179.04
2022-11-19T11:58:36.857Z,52162.56
2022-11-19T12:01:15.878Z,52164.57
2022-11-19T12:04:04.120Z,52161.36
2022-11-19T12:06:38.892Z,52173.01
2022-11-19T12:09:11.831Z,52173.82
2022-11-19T12:12:02.930Z,52135.24
2022-11-19T12:14:35.876Z,52165.78
2022-11-19T12:17:22.432Z,52163.37
2022-11-19T12:20:02.438Z,52193.51
2022-11-19T12:22:40.707Z,52209.18
2022-11-19T12:25:23.159Z,52206.77
2022-11-19T12:28:05.364Z,52223.65
2022-11-19T12:30:40.329Z,52226.05
2022-11-19T12:33:21.002Z,52248.16
2022-11-19T12:35:58.395Z,52261.42
2022-11-19T12:38:36.271Z,52244.14
2022-11-19T12:41:19.756Z,52269.86
2022-11-19T12:43:57.511Z,52267.45
2022-11-19T12:46:52.515Z,52291.56
2022-11-19T12:49:50.331Z,52290.35
2022-11-19T12:52:31.631Z,52279.51
2022-11-19T12:55:06.102Z,52289.15
2022-11-19T12:57:48.511Z,52290.76
2022-11-19T13:00:22.610Z,52300.00
2022-11-19T13:03:02.336Z,52309.65
2022-11-19T13:05:43.904Z,52306.03
2022-11-19T13:08:20.555Z,52305.63
2022-11-19T13:11:16.392Z,52303.62
2022-11-19T13:13:50.932Z,52339.78
2022-11-19T13:16:28.748Z,52307.23
2022-11-19T13:19:12.505Z,52319.69
2022-11-19T13:21:51.069Z,52337.77
2022-11-19T13:24:30.303Z,52326.52
2022-11-19T13:27:06.397Z,52318.89
2022-11-19T13:29:42.739Z,52328.94
2022-11-19T13:32:19.648Z,52329.34
2022-11-19T13:34:59.937Z,52328.13
2022-11-19T13:37:50.040Z,52328.54
2022-11-19T13:40:37.397Z,52338.58
2022-11-19T13:43:33.215Z,52346.21
2022-11-19T13:46:24.757Z,52353.45
2022-11-19T13:49:05.675Z,52363.09
2022-11-19T13:51:45.054Z,52350.63
2022-11-19T13:54:26.807Z,52355.86
2022-11-19T13:57:04.073Z,52351.04
2022-11-19T13:59:39.137Z,52366.30
2022-11-19T14:02:57.340Z,52360.68
2022-11-19T14:06:04.038Z,52355.86
2022-11-19T14:08:44.604Z,52363.09
2022-11-19T14:11:26.291Z,52379.97
2022-11-19T14:14:32.574Z,52361.49
2022-11-19T14:17:26.269Z,52375.95
2022-11-19T14:20:53.775Z,52392.84
2022-11-19T14:24:05.212Z,52383.99
2022-11-19T14:27:16.564Z,52377.96
2022-11-19T14:30:04.108Z,52379.57
2022-11-19T14:32:46.372Z,52388.81
2022-11-19T14:35:35.195Z,52382.38
2022-11-19T14:38:37.741Z,52381.58
2022-11-19T14:41:23.235Z,52380.78
2022-11-19T14:44:34.851Z,52392.84
2022-11-19T14:47:34.235Z,52405.29
2022-11-19T14:50:09.289Z,52386.00
2022-11-19T14:52:51.452Z,52406.50
2022-11-19T14:55:25.696Z,52393.23
2022-11-19T14:58:00.332Z,52389.62
2022-11-19T15:00:35.643Z,52387.21
2022-11-19T15:03:14.226Z,52394.44
2022-11-19T15:05:47.996Z,52386.80
2022-11-19T15:08:53.417Z,52404.49
2022-11-19T15:11:29.860Z,52387.21
2022-11-19T15:14:38.349Z,52394.84
2022-11-19T15:17:11.898Z,52411.72
2022-11-19T15:19:45.893Z,52414.13
2022-11-19T15:22:35.394Z,52392.84
2022-11-19T15:25:18.921Z,52404.89
2022-11-19T15:27:59.663Z,52412.52
2022-11-19T15:30:39.165Z,52409.31
2022-11-19T15:33:30.256Z,52403.28
2022-11-19T15:36:19.943Z,52401.27
2022-11-19T15:38:57.873Z,52415.74
2022-11-19T15:41:34.433Z,52412.92
2022-11-19T15:44:16.933Z,52403.68
2022-11-19T15:46:52.724Z,52420.16
2022-11-19T15:49:27.475Z,52408.91
2022-11-19T15:52:13.001Z,52424.18
2022-11-19T15:54:49.761Z,52407.70
2022-11-19T15:57:27.399Z,52410.91
2022-11-19T16:00:02.359Z,52416.54
2022-11-19T16:02:42.817Z,52415.74
2022-11-19T16:05:23.219Z,52418.95
2022-11-19T16:07:55.406Z,52416.95
2022-11-19T16:10:29.920Z,52422.17
2022-11-19T16:13:20.708Z,52412.12
2022-11-19T16:16:12.407Z,52415.34
2022-11-19T16:18:54.027Z,52435.43
2022-11-19T16:21:28.850Z,52417.35
2022-11-19T16:24:19.329Z,52425.38
2022-11-19T16:26:52.231Z,52438.65
2022-11-19T16:29:26.548Z,52417.75
2022-11-19T16:32:00.051Z,52429.40
2022-11-19T16:34:34.411Z,52416.14
2022-11-19T16:37:06.624Z,52421.36
2022-11-19T16:39:39.240Z,52423.38
2022-11-19T16:42:23.090Z,52413.33
2022-11-19T16:44:57.270Z,52408.51
2022-11-19T16:47:32.269Z,52410.91
2022-11-19T16:50:06.388Z,52427.79
2022-11-19T16:52:48.981Z,52435.43
2022-11-19T16:55:57.281Z,52432.62
2022-11-19T16:58:32.429Z,52424.98
2022-11-19T17:01:06.438Z,52429.80
2022-11-19T17:03:46.508Z,52417.35
2022-11-19T17:06:26.146Z,52429.00
2022-11-19T17:09:09.006Z,52413.33
2022-11-19T17:12:08.869Z,52430.21
2022-11-19T17:15:00.372Z,52428.60
2022-11-19T17:17:42.832Z,52449.50
2022-11-19T17:20:50.974Z,52453.92
2022-11-19T17:23:23.367Z,52414.13
2022-11-19T17:25:55.794Z,52426.19
2022-11-19T17:28:41.281Z,52438.24
2022-11-19T17:31:20.524Z,52432.21
2022-11-19T17:33:57.191Z,52449.90
2022-11-19T17:36:30.705Z,52426.59
2022-11-19T17:39:07.566Z,52433.43
2022-11-19T17:41:58.880Z,52440.66
2022-11-19T17:44:36.825Z,52429.40
2022-11-19T17:47:22.351Z,52428.60
2022-11-19T17:50:00.500Z,52430.61
2022-11-19T17:52:38.672Z,52420.56
2022-11-19T17:55:18.865Z,52427.79
2022-11-19T17:57:54.480Z,52415.34
2022-11-19T18:00:33.766Z,52424.58
2022-11-19T18:03:13.295Z,52432.21
2022-11-19T18:05:57.334Z,52445.48
2022-11-19T18:08:35.759Z,52427.39
2022-11-19T18:11:20.658Z,52440.66
2022-11-19T18:14:02.785Z,52447.09
2022-11-19T18:16:39.198Z,52445.48
2022-11-19T18:19:24.458Z,52432.62
2022-11-19T18:22:02.481Z,52433.43
2022-11-19T18:24:36.920Z,52448.29
2022-11-19T18:27:13.201Z,52439.05
2022-11-19T18:29:50.151Z,52444.68
2022-11-19T18:32:30.035Z,52446.68
2022-11-19T18:35:11.415Z,52433.82
2022-11-19T18:37:48.626Z,52440.25
2022-11-19T18:40:26.052Z,52435.02
2022-11-19T18:43:17.251Z,52425.79
2022-11-19T18:45:54.170Z,52437.04
2022-11-19T18:48:29.777Z,52447.89
2022-11-19T18:51:03.257Z,52447.89
2022-11-19T18:53:36.724Z,52435.83
2022-11-19T18:56:13.592Z,52452.31
2022-11-19T18:58:49.693Z,52439.45
2022-11-19T19:01:25.584Z,52439.45
2022-11-19T19:04:00.403Z,52437.44
2022-11-19T19:06:36.830Z,52428.60
2022-11-19T19:09:10.757Z,52436.64
2022-11-19T19:12:00.175Z,52448.70
2022-11-19T19:14:32.150Z,52456.73
2022-11-19T19:17:06.807Z,52447.49
2022-11-19T19:19:40.973Z,52453.51
2022-11-19T19:22:12.929Z,52439.45
2022-11-19T19:24:44.680Z,52444.68
2022-11-19T19:27:16.680Z,52452.71
2022-11-19T19:29:48.548Z,52447.49
2022-11-19T19:32:18.673Z,52448.29
2022-11-19T19:34:50.325Z,52442.26
2022-11-19T19:37:22.296Z,52453.51
2022-11-19T19:39:54.199Z,52460.35
2022-11-19T19:42:25.665Z,52450.30
2022-11-19T19:44:58.952Z,52464.37
2022-11-19T19:47:30.702Z,52469.20
2022-11-19T19:50:02.450Z,52447.89
2022-11-19T19:52:32.223Z,52435.44
2022-11-19T19:55:03.772Z,52446.69
2022-11-19T19:57:35.619Z,52445.48
2022-11-19T20:00:09.289Z,52431.01
2022-11-19T20:02:43.777Z,52457.53
2022-11-19T20:05:13.598Z,52449.50
2022-11-19T20:07:45.294Z,52454.72
2022-11-19T20:10:17.213Z,52438.65
2022-11-19T20:13:06.419Z,52455.93
2022-11-19T20:15:38.888Z,52451.11
2022-11-19T20:18:10.727Z,52450.70
2022-11-19T20:20:42.341Z,52449.89
2022-11-19T20:23:13.970Z,52461.15
2022-11-19T20:25:43.809Z,52447.09
2022-11-19T20:28:15.394Z,52458.34
2022-11-19T20:30:45.388Z,52448.70
2022-11-19T20:33:16.962Z,52450.30
2022-11-19T20:35:54.240Z,52459.95
2022-11-19T20:38:25.946Z,52460.75
2022-11-19T20:40:59.488Z,52401.68
2022-11-19T20:43:52.547Z,52467.58
2022-11-19T20:46:25.095Z,52449.90
2022-11-19T20:48:56.732Z,52452.31
2022-11-19T20:51:26.948Z,52449.90
2022-11-19T20:53:58.721Z,52467.99
2022-11-19T20:56:30.928Z,52450.70
2022-11-19T20:59:02.514Z,52453.51
2022-11-19T21:01:34.612Z,52436.24
2022-11-19T21:04:06.347Z,52442.26
2022-11-19T21:06:37.737Z,52451.91
2022-11-19T21:09:09.178Z,52428.60
2022-11-19T21:11:40.746Z,52445.48
2022-11-19T21:14:12.679Z,52453.52
2022-11-19T21:16:44.158Z,52446.28
2022-11-19T21:19:15.828Z,52450.30
2022-11-19T21:21:45.811Z,52456.73
2022-11-19T21:24:17.241Z,52450.71
2022-11-19T21:26:48.649Z,52444.68
2022-11-19T21:29:20.316Z,52446.28
2022-11-19T21:31:52.001Z,52437.45
2022-11-19T21:34:21.958Z,52460.75
2022-11-19T21:36:53.306Z,52461.15
2022-11-19T21:39:24.948Z,52445.88
2022-11-19T21:41:57.127Z,52461.15
2022-11-19T21:44:28.624Z,52466.77
2022-11-19T21:46:59.923Z,52454.32
2022-11-19T21:49:31.297Z,52457.94
2022-11-19T21:52:02.686Z,52448.29
2022-11-19T21:54:34.144Z,52454.72
2022-11-19T21:57:05.655Z,52456.73
2022-11-19T21:59:37.069Z,52452.71
2022-11-19T22:02:08.443Z,52461.15
2022-11-19T22:04:39.974Z,52461.96
2022-11-19T22:07:11.559Z,52449.90
2022-11-19T22:09:43.208Z,52449.49
2022-11-19T22:12:14.628Z,52469.59
2022-11-19T22:14:46.168Z,52441.46
2022-11-19T22:17:17.030Z,52472.41
2022-11-19T22:19:48.480Z,52451.11
2022-11-19T22:22:19.812Z,52467.18
2022-11-19T22:25:00.065Z,52472.41
2022-11-19T22:27:32.482Z,52455.93
2022-11-19T22:30:06.094Z,52457.13
2022-11-19T22:32:37.803Z,52447.09
2022-11-19T22:35:10.499Z,52453.92
2022-11-19T22:37:41.977Z,52451.91
2022-11-19T22:40:15.747Z,52445.07
2022-11-19T22:42:47.307Z,52461.15
2022-11-19T22:45:18.870Z,52455.13
2022-11-19T22:47:50.355Z,52458.74
2022-11-19T22:50:22.548Z,52459.95
2022-11-19T22:52:53.873Z,52463.56
2022-11-19T22:55:25.479Z,52471.60
2022-11-19T22:57:56.929Z,52464.77
2022-11-19T23:00:42.197Z,52458.34
2022-11-19T23:03:13.831Z,52474.42
2022-11-19T23:05:47.421Z,52461.16
2022-11-19T23:08:18.896Z,52466.38
2022-11-19T23:10:50.363Z,52471.20
2022-11-19T23:13:34.325Z,52463.16
2022-11-19T23:16:07.673Z,52461.95
2022-11-19T23:18:39.700Z,52464.77
2022-11-19T23:21:12.075Z,52462.76
2022-11-19T23:23:43.456Z,52476.43
2022-11-19T23:26:15.966Z,52463.16
2022-11-19T23:28:47.389Z,52452.71
2022-11-19T23:31:20.325Z,52457.13
2022-11-19T23:33:57.421Z,52461.16
2022-11-19T23:36:31.267Z,52460.75
2022-11-19T23:39:02.635Z,52466.38
2022-11-19T23:41:34.302Z,52463.16
2022-11-19T23:44:04.051Z,52447.09
2022-11-19T23:46:36.017Z,52457.13
2022-11-19T23:49:07.455Z,52459.95
2022-11-19T23:51:40.395Z,52447.89
2022-11-19T23:54:14.623Z,52436.24
2022-11-19T23:56:46.318Z,52452.71
2022-11-19T23:59:16.079Z,52446.68
